< Typhoon 198716 1987 Season Typhoon 198718 >
Typhoon 198717 (PEKE)
General InformationTrack Information on Google MapsDetailed Wind InformationList of All Images || Disaster Info.ResourceGoogle EarthGE AnimationAtom FeedGeoJSON
Detalied Best Track (Time Zone = UTC)
Year Month Day Hour Lat. Long. Pressure (hPa) Wind (kt) Class Image Chart
1987 9 28 06 24.0 180.7 950 80 7 Image Chart
1987 9 28 12 24.4 179.8 950 80 5 Image Chart
1987 9 28 18 24.8 178.6 950 80 5 Image Chart
1987 9 29 00 25.2 177.1 950 80 5 Image Chart
1987 9 29 06 25.7 175.8 950 80 5 Image Chart
1987 9 29 12 26.4 174.4 950 80 5 Image Chart
1987 9 29 18 27.3 173.1 950 80 5 Image Chart
1987 9 30 00 28.3 171.9 950 80 5 Image Chart
1987 9 30 06 29.3 170.8 950 80 5 Image Chart
1987 9 30 12 30.3 169.9 950 80 5 Image Chart
1987 9 30 18 31.1 169.5 955 75 5 Image Chart
1987 10 1 00 31.6 169.3 955 75 5 Image Chart
1987 10 1 06 31.9 169.2 965 75 5 Image Chart
1987 10 1 12 31.7 169.5 970 75 5 Image Chart
1987 10 1 18 31.5 169.8 975 70 5 Image Chart
1987 10 2 00 31.1 170.1 980 60 4 Image Chart
1987 10 2 06 30.6 170.9 985 60 4 Image Chart
1987 10 2 12 30.2 171.6 990 55 4 Image Chart
1987 10 2 18 29.8 172.2 992 50 4 Image Chart
1987 10 3 00 29.3 172.8 992 45 3 Image Chart
1987 10 3 06 28.7 173.3 994 40 3 Image Chart
1987 10 3 12 28.5 173.5 994 40 3 Image Chart
1987 10 3 18 28.4 173.8 996 40 3 Image Chart
1987 10 4 00 28.4 174.0 996 40 3 Image Chart
1987 10 4 06 28.4 174.2 996 35 3 Image Chart
1987 10 4 12 28.8 174.0 998 35 3 Image Chart
1987 10 4 18 28.9 173.5 1000 0 2 Image Chart
1987 10 5 00 29.0 172.9 1004 0 2 Image Chart
1987 10 5 06 29.0 172.5 1010 0 2 Image Chart
1987 10 5 12 29.6 172.2 1012 0 2 Image Chart
1987 10 5 18 30.5 171.5 1014 0 2 Image Chart
1987 10 6 00 30.5 171.5 1014 0 2 Image Chart
1987 10 6 06 31.5 172.5 1012 0 2 Image Chart
1987 10 6 12 31.5 172.5 1010 0 2 Image Chart
1987 10 6 18 31.5 174.0 1008 0 2 Image Chart
1987 10 7 00 32.0 175.5 1004 0 6 Image Chart
1987 10 7 06 32.5 177.5 1002 0 6 Image Chart
1987 10 7 12 33.5 180.0 1000 0 6 Image Chart
Japan Meteorological Agency Best Track Data | Correction Date : 2013-11-22
< Typhoon 198716 1987 Season Typhoon 198718 >

Help